Time;durP1;ratioP1;P1;durP2;ratioP2;P2;SDS_P1;SDS_P2;PMS_P1;PMS_P2;Temp;Humidity;BMP_temperature;BMP_pressure;BME280_temperature;BME280_humidity;BME280_pressure;Samples;Min_cycle;Max_cycle;Signal;HPM_P1;HPM_P2
2022/03/31 00:00:36;;;;;;;27.33;14.60;;;5.30;99.90;;;;;;5075444;28;20024;-63
2022/03/31 00:03:04;;;;;;;23.45;13.75;;;5.30;99.90;;;;;;5074613;28;20035;-64
2022/03/31 00:05:30;;;;;;;30.40;15.38;;;5.30;99.90;;;;;;5075234;28;20036;-63
2022/03/31 00:08:07;;;;;;;26.38;15.55;;;5.20;99.90;;;;;;5075412;28;20028;-64
2022/03/31 00:10:37;;;;;;;28.70;15.38;;;5.30;99.90;;;;;;5074085;28;20104;-65
2022/03/31 00:13:05;;;;;;;32.17;16.27;;;5.30;99.90;;;;;;5075318;28;20507;-64
2022/03/31 00:15:32;;;;;;;32.10;16.35;;;5.30;99.90;;;;;;5075169;28;20013;-63
2022/03/31 00:17:59;;;;;;;30.70;15.15;;;5.30;99.90;;;;;;5075736;28;20044;-64
2022/03/31 00:20:26;;;;;;;29.23;14.85;;;5.20;99.90;;;;;;5075193;28;20028;-65
2022/03/31 00:22:52;;;;;;;27.92;15.70;;;5.20;99.90;;;;;;5075678;28;20415;-65
2022/03/31 00:25:18;;;;;;;32.65;16.90;;;5.20;99.90;;;;;;5074077;28;20047;-65
2022/03/31 00:27:43;;;;;;;26.70;14.60;;;5.20;99.90;;;;;;5074900;28;20468;-65
2022/03/31 00:30:11;;;;;;;28.30;16.27;;;5.20;99.90;;;;;;5075299;28;20063;-63
2022/03/31 00:32:38;;;;;;;68.45;43.08;;;5.20;99.90;;;;;;5075416;28;20392;-64
2022/03/31 00:35:05;;;;;;;45.22;28.90;;;5.30;99.90;;;;;;5074836;28;20047;-64
2022/03/31 00:37:31;;;;;;;44.47;24.67;;;5.40;99.90;;;;;;5073141;28;20021;-65
2022/03/31 00:39:57;;;;;;;37.42;20.52;;;5.50;99.90;;;;;;5074555;28;20027;-65
2022/03/31 00:42:23;;;;;;;47.80;26.30;;;5.50;99.90;;;;;;5075174;28;20024;-64
2022/03/31 00:44:49;;;;;;;32.22;18.40;;;5.60;99.90;;;;;;5074834;28;20146;-65
2022/03/31 00:47:15;;;;;;;31.83;16.40;;;5.50;99.90;;;;;;5074975;28;20028;-64
2022/03/31 00:49:41;;;;;;;26.42;16.13;;;5.60;99.90;;;;;;5074610;28;20527;-67
2022/03/31 00:52:08;;;;;;;38.47;20.00;;;5.60;99.90;;;;;;5075040;28;20424;-64
2022/03/31 00:54:34;;;;;;;36.78;21.38;;;5.60;99.90;;;;;;5074273;28;20481;-65
2022/03/31 00:57:03;;;;;;;27.73;15.23;;;5.60;99.90;;;;;;5074636;28;20473;-65
2022/03/31 00:59:29;;;;;;;;;;;5.60;99.90;;;;;;5074835;28;20069;-63
2022/03/31 01:01:56;;;;;;;30.65;15.35;;;5.50;99.90;;;;;;5074859;28;19912;-64
2022/03/31 01:04:22;;;;;;;26.75;15.38;;;5.30;99.90;;;;;;5073197;28;20029;-65
2022/03/31 01:06:47;;;;;;;29.23;15.50;;;5.30;99.90;;;;;;5074765;28;20096;-62
2022/03/31 01:09:13;;;;;;;30.15;15.30;;;5.30;99.90;;;;;;5074170;28;20064;-64
2022/03/31 01:11:39;;;;;;;28.13;15.07;;;5.20;99.90;;;;;;5074318;28;20033;-64
2022/03/31 01:14:09;;;;;;;25.85;15.00;;;5.20;99.90;;;;;;5073798;28;20031;-63
2022/03/31 01:16:36;;;;;;;31.23;16.05;;;5.10;99.90;;;;;;5074567;28;20021;-63
2022/03/31 01:19:05;;;;;;;28.10;14.57;;;5.10;99.90;;;;;;5073954;28;20021;-64
2022/03/31 01:21:36;;;;;;;28.38;14.73;;;5.10;99.90;;;;;;5073083;28;20027;-65
2022/03/31 01:24:03;;;;;;;30.90;16.13;;;5.10;99.90;;;;;;5073712;28;20026;-63
2022/03/31 01:26:28;;;;;;;30.83;15.18;;;5.10;99.90;;;;;;5073901;28;20025;-65
2022/03/31 01:28:54;;;;;;;30.73;15.00;;;5.00;99.90;;;;;;5073791;28;20052;-65
2022/03/31 01:31:20;;;;;;;31.08;16.35;;;5.10;99.90;;;;;;5073939;28;20040;-65
2022/03/31 01:33:46;;;;;;;29.60;15.07;;;5.10;99.90;;;;;;5073992;28;20412;-64
2022/03/31 01:36:11;;;;;;;32.17;15.10;;;5.10;99.90;;;;;;5073401;28;20508;-63
2022/03/31 01:38:37;;;;;;;28.42;15.48;;;5.10;99.90;;;;;;5072361;28;20013;-65
2022/03/31 01:41:04;;;;;;;29.40;15.27;;;5.10;99.90;;;;;;5071739;28;20024;-65
2022/03/31 01:43:29;;;;;;;28.83;15.52;;;5.10;99.90;;;;;;5073969;28;20405;-63
2022/03/31 01:45:56;;;;;;;29.83;15.73;;;5.10;99.90;;;;;;5073514;28;20028;-65
2022/03/31 01:48:22;;;;;;;30.20;16.30;;;5.10;99.90;;;;;;5073706;28;20093;-63
2022/03/31 01:50:48;;;;;;;27.90;15.82;;;5.10;99.90;;;;;;5073366;28;20024;-63
2022/03/31 01:53:18;;;;;;;29.15;15.73;;;5.00;99.90;;;;;;5072423;28;20064;-63
2022/03/31 01:55:44;;;;;;;31.83;15.75;;;5.10;99.90;;;;;;5072982;28;20032;-61
2022/03/31 01:58:10;;;;;;;27.98;15.40;;;5.10;99.90;;;;;;5073709;28;20020;-62
2022/03/31 02:00:35;;;;;;;27.90;15.93;;;5.10;99.90;;;;;;5071894;28;20084;-63
2022/03/31 02:03:01;;;;;;;34.42;16.52;;;5.10;99.90;;;;;;5073750;28;20024;-62
2022/03/31 02:05:27;;;;;;;31.20;17.88;;;5.10;99.90;;;;;;5071853;28;20388;-63
2022/03/31 02:07:56;;;;;;;29.15;16.38;;;5.10;99.90;;;;;;5073036;28;20016;-62
2022/03/31 02:10:26;;;;;;;29.92;15.50;;;5.10;99.90;;;;;;5071496;28;20511;-62
2022/03/31 02:12:53;;;;;;;28.98;16.20;;;5.00;99.90;;;;;;5073313;28;20033;-65
2022/03/31 02:15:22;;;;;;;31.60;16.85;;;4.90;99.90;;;;;;5073066;28;20051;-62
2022/03/31 02:17:48;;;;;;;;;;;4.90;99.90;;;;;;5072527;28;20040;-62
2022/03/31 02:20:14;;;;;;;62.92;34.67;;;5.00;99.90;;;;;;5071467;28;19911;-62
2022/03/31 02:22:40;;;;;;;36.20;19.73;;;5.00;99.90;;;;;;5073122;28;20024;-64
2022/03/31 02:25:11;;;;;;;34.13;17.50;;;5.10;99.90;;;;;;5072797;28;20103;-64
2022/03/31 02:27:36;;;;;;;31.40;16.33;;;5.10;99.90;;;;;;5073219;28;20025;-62
2022/03/31 02:30:04;;;;;;;30.33;17.00;;;5.00;99.90;;;;;;5071711;28;20074;-64
2022/03/31 02:32:30;;;;;;;29.93;17.10;;;5.00;99.90;;;;;;5073400;28;20051;-63
2022/03/31 02:34:56;;;;;;;35.47;17.52;;;4.90;99.90;;;;;;5071581;28;20563;-64
2022/03/31 02:37:21;;;;;;;32.40;17.90;;;4.90;99.90;;;;;;5072815;28;20021;-63
2022/03/31 02:39:47;;;;;;;32.42;16.80;;;4.80;99.90;;;;;;5072709;28;20100;-65
2022/03/31 02:42:13;;;;;;;36.15;18.00;;;4.80;99.90;;;;;;5071272;28;20089;-64
2022/03/31 02:44:38;;;;;;;37.58;17.80;;;4.70;99.90;;;;;;5071288;28;20028;-64
2022/03/31 02:47:04;;;;;;;31.83;17.30;;;4.70;99.90;;;;;;5071378;28;20024;-65
2022/03/31 02:49:30;;;;;;;31.08;17.50;;;4.70;99.90;;;;;;5070931;28;20093;-63
2022/03/31 02:51:55;;;;;;;33.63;17.58;;;4.80;99.90;;;;;;5070825;28;20115;-64
2022/03/31 02:57:05;;;;;;;28.85;17.00;;;4.70;99.90;;;;;;5072675;28;20519;-65
2022/03/31 02:59:31;;;;;;;30.35;16.75;;;4.70;99.90;;;;;;5071062;28;20044;-64
2022/03/31 03:01:58;;;;;;;31.85;16.70;;;4.80;99.90;;;;;;5072817;28;20035;-63
2022/03/31 03:04:24;;;;;;;32.63;17.42;;;4.80;99.90;;;;;;5070986;28;20047;-63
2022/03/31 03:06:50;;;;;;;36.95;19.70;;;4.80;99.90;;;;;;5072800;28;20028;-65
2022/03/31 03:09:16;;;;;;;33.67;17.95;;;4.80;99.90;;;;;;5072115;28;20082;-65
2022/03/31 03:11:41;;;;;;;33.05;17.58;;;4.80;99.90;;;;;;5071260;28;20032;-63
2022/03/31 03:14:09;;;;;;;30.52;17.27;;;4.80;99.90;;;;;;5072072;28;20032;-65
2022/03/31 03:16:34;;;;;;;34.63;16.73;;;4.80;99.90;;;;;;5072317;28;20025;-64
2022/03/31 03:19:00;;;;;;;29.33;15.95;;;4.80;99.90;;;;;;5072038;28;20366;-64
2022/03/31 03:21:26;;;;;;;33.40;17.45;;;4.80;99.90;;;;;;5071475;28;20021;-64
2022/03/31 03:23:51;;;;;;;32.40;16.77;;;4.80;99.90;;;;;;5072113;28;20028;-62
2022/03/31 03:26:17;;;;;;;27.80;15.38;;;4.80;99.90;;;;;;5070663;28;20028;-64
2022/03/31 03:28:43;;;;;;;29.08;16.52;;;4.80;99.90;;;;;;5072589;28;20530;-63
2022/03/31 03:31:08;;;;;;;29.75;16.58;;;4.90;99.90;;;;;;5072070;28;20044;-63
2022/03/31 03:33:34;;;;;;;30.00;15.43;;;4.90;99.90;;;;;;5072048;28;20060;-64
2022/03/31 03:36:02;;;;;;;30.20;15.77;;;4.90;99.90;;;;;;5070311;28;20035;-64
2022/03/31 03:38:27;;;;;;;28.38;15.18;;;4.90;99.90;;;;;;5070793;28;20024;-63
2022/03/31 03:40:53;;;;;;;28.88;17.45;;;4.90;99.90;;;;;;5070337;28;20028;-63
2022/03/31 03:43:19;;;;;;;34.05;16.38;;;4.90;99.90;;;;;;5071959;28;20032;-64
2022/03/31 03:45:46;;;;;;;28.00;15.70;;;4.80;99.90;;;;;;5071484;28;20492;-63
2022/03/31 03:48:11;;;;;;;30.25;16.35;;;4.80;99.90;;;;;;5070814;28;20075;-62
2022/03/31 03:50:41;;;;;;;29.55;17.25;;;4.90;99.90;;;;;;5071616;28;20025;-64
2022/03/31 03:53:08;;;;;;;29.58;15.60;;;4.90;99.90;;;;;;5071850;28;20028;-64
2022/03/31 03:55:35;;;;;;;31.30;16.50;;;4.90;99.90;;;;;;5071655;28;20503;-62
2022/03/31 03:58:01;;;;;;;27.88;16.80;;;5.00;99.90;;;;;;5072279;28;20474;-63
2022/03/31 04:00:28;;;;;;;30.67;17.02;;;5.00;99.90;;;;;;5071517;28;20039;-63
2022/03/31 04:02:53;;;;;;;30.05;15.30;;;5.00;99.90;;;;;;5073004;28;20031;-63
2022/03/31 04:05:20;;;;;;;29.85;16.40;;;5.00;99.90;;;;;;5075313;28;20032;-62
2022/03/31 04:07:46;;;;;;;28.38;16.00;;;5.10;99.90;;;;;;5074260;28;20048;-63
2022/03/31 04:10:12;;;;;;;26.67;15.40;;;5.10;99.90;;;;;;5073977;28;20503;-63
2022/03/31 04:12:39;;;;;;;26.75;15.82;;;5.00;99.90;;;;;;5074443;28;20484;-64
2022/03/31 04:15:06;;;;;;;25.98;15.82;;;5.10;99.90;;;;;;5074511;28;20116;-62
2022/03/31 04:17:32;;;;;;;28.50;15.80;;;5.10;99.90;;;;;;5076006;28;20091;-63
2022/03/31 04:19:58;;;;;;;31.08;17.20;;;5.10;99.90;;;;;;5075314;28;20070;-64
2022/03/31 04:22:24;;;;;;;30.05;17.90;;;5.10;99.90;;;;;;5075852;28;20021;-64
2022/03/31 04:24:49;;;;;;;31.23;16.67;;;5.10;99.90;;;;;;5074844;28;20392;-63
2022/03/31 04:27:15;;;;;;;27.00;16.38;;;5.10;99.90;;;;;;5074923;28;20054;-65
2022/03/31 04:29:40;;;;;;;30.55;16.75;;;5.10;99.90;;;;;;5074708;28;20028;-64
2022/03/31 04:32:06;;;;;;;30.42;16.33;;;5.10;99.90;;;;;;5075085;28;20066;-64
2022/03/31 04:34:32;;;;;;;28.25;16.40;;;5.20;99.90;;;;;;5074616;28;20031;-64
2022/03/31 04:36:58;;;;;;;36.45;17.17;;;5.20;99.90;;;;;;5074854;28;20022;-64
2022/03/31 04:39:24;;;;;;;29.42;17.83;;;5.20;99.90;;;;;;5073159;28;20035;-64
2022/03/31 04:41:50;;;;;;;31.90;17.80;;;5.20;99.90;;;;;;5075152;28;20459;-64
2022/03/31 04:44:16;;;;;;;31.27;16.73;;;5.20;99.90;;;;;;5074505;28;20024;-64
2022/03/31 04:46:41;;;;;;;31.67;17.15;;;5.20;99.90;;;;;;5074734;28;20108;-64
2022/03/31 04:49:07;;;;;;;34.35;18.45;;;5.20;99.90;;;;;;5074516;28;20021;-64
2022/03/31 04:51:33;;;;;;;28.10;16.83;;;5.10;99.90;;;;;;5074659;28;20028;-64
2022/03/31 04:53:58;;;;;;;31.80;18.13;;;5.20;99.90;;;;;;5073016;28;20024;-64
2022/03/31 04:56:24;;;;;;;29.20;17.08;;;5.40;99.90;;;;;;5074233;28;20039;-64
2022/03/31 04:58:49;;;;;;;33.72;17.75;;;5.50;99.90;;;;;;5072907;28;20455;-64
2022/03/31 05:01:17;;;;;;;32.45;18.02;;;5.40;99.90;;;;;;5073091;28;20031;-65
2022/03/31 05:03:42;;;;;;;28.48;17.48;;;5.40;99.90;;;;;;5074183;28;20024;-63
2022/03/31 05:06:08;;;;;;;30.42;17.90;;;5.30;99.90;;;;;;5073836;28;20031;-66
2022/03/31 05:08:35;;;;;;;30.58;17.90;;;5.30;99.90;;;;;;5074427;28;20021;-61
2022/03/31 05:11:01;;;;;;;30.42;17.73;;;5.30;99.90;;;;;;5073846;28;20025;-61
2022/03/31 05:13:26;;;;;;;30.77;18.13;;;5.30;99.90;;;;;;5073918;28;20033;-65
2022/03/31 05:15:52;;;;;;;31.55;17.35;;;5.20;99.90;;;;;;5071801;28;20029;-63
2022/03/31 05:18:18;;;;;;;25.98;16.73;;;5.20;99.90;;;;;;5072524;28;20044;-63
2022/03/31 05:20:44;;;;;;;31.05;17.67;;;5.20;99.90;;;;;;5073520;28;20044;-63
2022/03/31 05:23:10;;;;;;;30.48;18.35;;;5.20;99.90;;;;;;5074499;28;20392;-65
2022/03/31 05:25:36;;;;;;;32.35;18.65;;;5.20;99.90;;;;;;5072176;28;20016;-61
2022/03/31 05:28:02;;;;;;;28.17;17.00;;;5.20;99.90;;;;;;5073539;28;20366;-65
2022/03/31 05:30:27;;;;;;;29.08;18.38;;;5.30;99.90;;;;;;5072775;28;20024;-65
2022/03/31 05:32:53;;;;;;;34.65;18.98;;;5.30;99.90;;;;;;5072502;28;20086;-63
2022/03/31 05:35:20;;;;;;;34.60;18.73;;;5.30;99.90;;;;;;5073726;28;20028;-63
2022/03/31 05:37:49;;;;;;;31.60;19.35;;;5.30;99.90;;;;;;5073947;28;20048;-63
2022/03/31 05:40:18;;;;;;;35.55;18.90;;;5.30;99.90;;;;;;5073025;28;20021;-64
2022/03/31 05:42:44;;;;;;;36.35;19.02;;;5.30;99.90;;;;;;5073498;28;20064;-65
2022/03/31 05:45:12;;;;;;;32.33;18.10;;;5.20;99.90;;;;;;5072360;28;20033;-64
2022/03/31 05:47:39;;;;;;;34.00;19.08;;;5.30;99.90;;;;;;5072788;28;20469;-63
2022/03/31 05:50:06;;;;;;;32.35;19.27;;;5.40;99.90;;;;;;5072737;28;20111;-63
2022/03/31 05:52:32;;;;;;;31.38;18.05;;;5.40;99.90;;;;;;5073409;28;20020;-64
2022/03/31 05:54:59;;;;;;;31.05;19.02;;;5.40;99.90;;;;;;5072438;28;20511;-63
2022/03/31 05:57:24;;;;;;;34.97;18.02;;;5.30;99.90;;;;;;5091771;22;20501;-62
2022/03/31 05:59:50;;;;;;;37.10;20.02;;;5.40;99.90;;;;;;5095793;28;20079;-63
2022/03/31 06:02:15;;;;;;;37.17;20.52;;;5.30;99.90;;;;;;5096022;28;20365;-63
2022/03/31 06:04:41;;;;;;;32.47;19.05;;;5.30;99.90;;;;;;5094482;28;20119;-64
2022/03/31 06:07:07;;;;;;;33.50;18.40;;;5.40;99.90;;;;;;5096521;28;20028;-64
2022/03/31 06:09:33;;;;;;;32.90;19.73;;;5.50;99.90;;;;;;5096013;28;20047;-65
2022/03/31 06:11:59;;;;;;;33.40;19.60;;;5.60;99.90;;;;;;5096297;28;20107;-60
2022/03/31 06:14:24;;;;;;;34.50;20.23;;;5.60;99.90;;;;;;5094981;28;20087;-65
2022/03/31 06:16:51;;;;;;;31.80;18.08;;;5.60;99.90;;;;;;5094856;28;20069;-62
2022/03/31 06:19:17;;;;;;;30.25;18.85;;;5.60;99.90;;;;;;5094949;28;20049;-62
2022/03/31 06:21:43;;;;;;;31.42;19.42;;;5.50;99.90;;;;;;5095006;28;20019;-64
2022/03/31 06:24:09;;;;;;;35.75;19.67;;;5.70;99.90;;;;;;5094921;28;20024;-64
2022/03/31 06:26:58;;;;;;;37.13;20.60;;;5.60;99.90;;;;;;5076630;28;20028;-70
2022/03/31 06:29:27;;;;;;;33.08;18.45;;;5.60;99.90;;;;;;5094406;28;20046;-63
2022/03/31 06:31:54;;;;;;;35.30;20.23;;;5.60;99.90;;;;;;5094219;28;20048;-64
2022/03/31 06:34:21;;;;;;;33.63;20.05;;;5.60;99.90;;;;;;5075961;28;20567;-62
2022/03/31 06:36:47;;;;;;;33.72;19.52;;;5.50;99.90;;;;;;5094235;28;20107;-62
2022/03/31 06:39:13;;;;;;;38.17;19.30;;;5.60;99.90;;;;;;5094613;28;20040;-63
2022/03/31 06:41:39;;;;;;;34.63;19.38;;;5.70;99.90;;;;;;5094779;28;20070;-63
2022/03/31 06:44:07;;;;;;;33.10;18.30;;;5.80;99.90;;;;;;5094001;28;20064;-62
2022/03/31 06:46:34;;;;;;;26.30;16.60;;;5.90;99.90;;;;;;5095230;28;20028;-64
2022/03/31 06:49:00;;;;;;;32.50;18.90;;;6.00;99.90;;;;;;5095141;28;20036;-63
2022/03/31 06:51:26;;;;;;;30.02;16.95;;;6.00;99.90;;;;;;5076192;28;20028;-62
2022/03/31 06:53:51;;;;;;;29.70;16.77;;;6.00;99.90;;;;;;5094564;28;20028;-61
2022/03/31 06:56:18;;;;;;;28.02;16.38;;;6.10;99.90;;;;;;5075799;28;20020;-64
2022/03/31 06:58:44;;;;;;;27.02;17.20;;;6.10;99.90;;;;;;5095011;28;20036;-63
2022/03/31 07:01:11;;;;;;;29.67;16.42;;;6.10;99.90;;;;;;5076220;28;20024;-65
2022/03/31 07:03:36;;;;;;;28.58;16.90;;;6.10;99.90;;;;;;5094659;28;20411;-62
2022/03/31 07:06:02;;;;;;;26.90;17.55;;;6.10;99.90;;;;;;5094120;28;20024;-63
2022/03/31 07:08:28;;;;;;;27.50;16.20;;;6.10;99.90;;;;;;5094422;28;20044;-64
2022/03/31 07:10:54;;;;;;;28.30;17.55;;;6.20;99.90;;;;;;5093542;28;20035;-63
2022/03/31 07:13:19;;;;;;;26.88;16.35;;;6.10;99.90;;;;;;5092805;28;20027;-65
2022/03/31 07:15:45;;;;;;;28.73;16.10;;;6.20;99.90;;;;;;5093188;28;20023;-65
2022/03/31 07:18:11;;;;;;;27.75;15.80;;;6.20;99.90;;;;;;5094063;28;20630;-62
2022/03/31 07:20:36;;;;;;;29.48;16.92;;;6.20;99.90;;;;;;5093971;28;20032;-62
2022/03/31 07:23:03;;;;;;;29.73;17.23;;;6.30;99.90;;;;;;5094023;28;20024;-63
2022/03/31 07:25:29;;;;;;;28.63;15.63;;;6.30;99.90;;;;;;5093705;28;20020;-63
2022/03/31 07:27:55;;;;;;;25.85;15.02;;;6.40;99.90;;;;;;5093958;28;20051;-63
2022/03/31 07:30:22;;;;;;;28.27;15.43;;;6.50;99.90;;;;;;5094103;28;20020;-63
2022/03/31 07:32:52;;;;;;;26.05;15.93;;;6.50;99.90;;;;;;5094654;28;20049;-63
2022/03/31 07:35:20;;;;;;;26.02;15.07;;;6.60;99.90;;;;;;5093439;28;20020;-64
2022/03/31 07:37:45;;;;;;;30.88;16.35;;;6.70;99.90;;;;;;5077422;28;20024;-64
2022/03/31 07:40:11;;;;;;;29.13;16.10;;;6.70;99.90;;;;;;5079502;28;20392;-64
2022/03/31 07:42:37;;;;;;;29.40;15.82;;;6.80;99.90;;;;;;5098444;28;20020;-62
2022/03/31 07:45:03;;;;;;;27.35;16.50;;;6.70;99.90;;;;;;5097614;28;20028;-61
2022/03/31 07:47:29;;;;;;;29.50;17.30;;;6.80;99.90;;;;;;5098357;28;20403;-64
2022/03/31 07:49:55;;;;;;;28.70;16.98;;;7.00;99.90;;;;;;5097269;28;20031;-64
2022/03/31 07:52:21;;;;;;;25.73;15.23;;;7.00;99.90;;;;;;5097831;28;20028;-64
2022/03/31 07:54:50;;;;;;;29.63;16.20;;;7.10;99.90;;;;;;5097313;28;20023;-60
2022/03/31 07:57:16;;;;;;;27.65;15.65;;;7.20;99.90;;;;;;5098006;28;20036;-63
2022/03/31 07:59:42;;;;;;;29.35;15.85;;;7.20;99.90;;;;;;5079133;28;20027;-64
2022/03/31 08:02:09;;;;;;;28.10;15.27;;;7.10;99.90;;;;;;5097210;28;20047;-63
2022/03/31 08:04:34;;;;;;;26.20;14.15;;;7.20;99.90;;;;;;5097277;28;20047;-64
2022/03/31 08:07:00;;;;;;;24.90;13.85;;;7.30;99.90;;;;;;5097771;28;20392;-61
2022/03/31 08:09:26;;;;;;;25.15;13.85;;;7.30;99.90;;;;;;5096995;28;20020;-61
2022/03/31 08:11:52;;;;;;;26.52;15.20;;;7.40;99.90;;;;;;5097855;28;20021;-64
2022/03/31 08:14:19;;;;;;;25.30;14.18;;;7.60;99.90;;;;;;5095832;28;20108;-62
2022/03/31 08:16:49;;;;;;;34.20;16.10;;;7.80;99.90;;;;;;5096468;28;20020;-63
2022/03/31 08:19:16;;;;;;;27.08;15.38;;;8.00;99.90;;;;;;5094279;28;20020;-64
2022/03/31 08:21:45;;;;;;;26.88;16.17;;;8.00;99.90;;;;;;5093753;28;20024;-63
2022/03/31 08:24:13;;;;;;;28.00;14.57;;;8.20;99.90;;;;;;5093326;28;20071;-63
2022/03/31 08:26:40;;;;;;;25.63;15.10;;;8.20;99.90;;;;;;5075525;28;20035;-56
2022/03/31 08:29:07;;;;;;;26.15;15.60;;;8.10;99.90;;;;;;5093379;28;20052;-58
2022/03/31 08:31:34;;;;;;;24.50;14.23;;;8.00;99.90;;;;;;5093731;28;20032;-57
2022/03/31 08:34:00;;;;;;;25.40;14.95;;;7.80;99.90;;;;;;5075138;28;20560;-58
2022/03/31 08:36:26;;;;;;;28.88;15.57;;;7.70;99.90;;;;;;5093445;28;20368;-59
2022/03/31 08:38:52;;;;;;;31.17;16.20;;;7.60;99.90;;;;;;5093111;28;20021;-58
2022/03/31 08:41:19;;;;;;;35.00;16.60;;;7.50;99.90;;;;;;5093609;28;20073;-59
2022/03/31 08:43:44;;;;;;;31.20;17.73;;;7.50;99.90;;;;;;5093544;28;20634;-59
2022/03/31 08:46:11;;;;;;;28.85;17.08;;;7.50;99.90;;;;;;5092688;28;20035;-61
2022/03/31 08:48:37;;;;;;;28.95;16.27;;;7.50;99.90;;;;;;5092483;28;20117;-61
2022/03/31 08:51:04;;;;;;;27.90;16.42;;;7.60;99.90;;;;;;5092692;28;20062;-61
2022/03/31 08:53:33;;;;;;;29.95;18.13;;;7.80;99.90;;;;;;5092721;28;20376;-58
2022/03/31 08:55:59;;;;;;;28.08;16.85;;;7.80;99.90;;;;;;5092410;28;20652;-61
2022/03/31 08:58:25;;;;;;;30.05;17.38;;;7.70;99.90;;;;;;5074953;28;20067;-57
2022/03/31 09:00:51;;;;;;;48.50;34.42;;;7.60;99.90;;;;;;5092260;28;20066;-62
2022/03/31 09:03:18;;;;;;;61.25;42.13;;;7.60;99.90;;;;;;5089882;28;20048;-60
2022/03/31 09:05:57;;;;;;;38.17;19.27;;;7.60;99.90;;;;;;5092461;28;20028;-67
2022/03/31 09:08:23;;;;;;;30.67;18.95;;;7.60;99.90;;;;;;5093134;28;20488;-67
2022/03/31 09:10:53;;;;;;;34.92;19.63;;;7.40;99.90;;;;;;5092078;28;20028;-67
2022/03/31 09:13:36;;;;;;;38.38;23.77;;;7.50;99.90;;;;;;5092539;28;20035;-66
2022/03/31 09:16:02;;;;;;;38.88;22.77;;;7.60;99.90;;;;;;5091890;28;20028;-66
2022/03/31 09:18:31;;;;;;;36.65;21.40;;;7.70;99.90;;;;;;5074354;28;20024;-66
2022/03/31 09:20:59;;;;;;;32.22;19.63;;;7.80;99.90;;;;;;5092312;28;20091;-66
2022/03/31 09:23:26;;;;;;;;;;;7.80;99.90;;;;;;5093070;28;20098;-66
2022/03/31 09:26:00;;;;;;;49.50;31.92;;;7.80;99.90;;;;;;5092225;28;19911;-66
2022/03/31 09:28:25;;;;;;;31.95;19.30;;;7.90;99.90;;;;;;5092403;28;20039;-64
2022/03/31 09:30:52;;;;;;;36.95;23.23;;;7.70;99.90;;;;;;5091821;28;20380;-67
2022/03/31 09:33:48;;;;;;;34.80;21.02;;;7.80;99.90;;;;;;5092684;28;20097;-67
2022/03/31 09:36:19;;;;;;;34.17;21.60;;;7.90;99.90;;;;;;5062564;28;20028;-67
2022/03/31 09:39:00;;;;;;;35.10;20.38;;;7.70;99.90;;;;;;5054477;28;20048;-67
2022/03/31 09:41:31;;;;;;;36.17;22.08;;;7.80;99.90;;;;;;5072456;28;20035;-68
2022/03/31 09:44:00;;;;;;;35.47;21.60;;;8.00;99.90;;;;;;5072112;28;20052;-67
2022/03/31 09:46:27;;;;;;;;;;;8.20;99.90;;;;;;5072565;28;20029;-67
2022/03/31 09:48:54;;;;;;;32.83;20.55;;;8.00;99.90;;;;;;5071690;28;20421;-67
2022/03/31 09:51:22;;;;;;;33.33;21.85;;;8.10;99.90;;;;;;5071895;28;20036;-67
2022/03/31 09:53:49;;;;;;;33.75;20.05;;;8.40;99.90;;;;;;5072422;28;20085;-66
2022/03/31 09:56:24;;;;;;;33.65;21.02;;;8.60;99.90;;;;;;5072129;28;20027;-67
2022/03/31 09:58:51;;;;;;;34.95;20.85;;;8.70;99.90;;;;;;5053915;28;20059;-66
2022/03/31 10:01:18;;;;;;;32.22;20.80;;;8.50;99.90;;;;;;5069270;28;20058;-67
2022/03/31 10:03:44;;;;;;;34.58;22.02;;;8.40;99.90;;;;;;5090080;28;20024;-67
2022/03/31 10:06:12;;;;;;;37.35;22.70;;;8.50;99.90;;;;;;5089499;28;20089;-67
2022/03/31 10:08:40;;;;;;;33.93;20.83;;;8.60;99.90;;;;;;5089891;28;20089;-67
2022/03/31 10:11:07;;;;;;;32.63;20.52;;;8.50;99.90;;;;;;5089487;28;20143;-67
2022/03/31 10:13:47;;;;;;;31.38;20.65;;;8.50;99.90;;;;;;5089763;28;20377;-66
2022/03/31 10:16:17;;;;;;;35.38;21.58;;;8.50;99.90;;;;;;5091106;28;20118;-65
2022/03/31 10:18:48;;;;;;;32.35;20.88;;;8.60;99.90;;;;;;5091525;28;20024;-65
2022/03/31 10:21:26;;;;;;;32.75;20.38;;;8.90;99.90;;;;;;5073239;28;20020;-66
2022/03/31 10:26:36;;;;;;;31.75;21.33;;;9.50;99.90;;;;;;5091759;28;20031;-66
2022/03/31 10:29:13;;;;;;;34.47;21.80;;;9.40;99.90;;;;;;5090704;28;20388;-65
2022/03/31 10:31:42;;;;;;;32.28;20.02;;;9.70;99.90;;;;;;5091714;28;20055;-65
2022/03/31 10:34:10;;;;;;;37.83;20.95;;;9.50;99.90;;;;;;5090960;28;20046;-66
2022/03/31 10:36:36;;;;;;;36.13;21.48;;;9.50;99.90;;;;;;5091370;28;20027;-65
2022/03/31 10:39:05;;;;;;;36.92;21.80;;;9.40;99.90;;;;;;5090703;28;20472;-66
2022/03/31 10:41:36;;;;;;;35.47;20.85;;;9.40;99.90;;;;;;5091141;28;20055;-65
2022/03/31 10:44:04;;;;;;;93.70;64.05;;;9.50;99.90;;;;;;5091005;28;20061;-62
2022/03/31 10:46:32;;;;;;;61.67;46.70;;;9.50;99.90;;;;;;5090925;28;20043;-64
2022/03/31 10:48:58;;;;;;;40.83;26.10;;;9.40;99.90;;;;;;5090821;28;20034;-60
2022/03/31 10:51:35;;;;;;;39.80;23.60;;;9.20;99.90;;;;;;5073091;28;20032;-59
2022/03/31 10:54:02;;;;;;;40.00;23.98;;;9.20;99.90;;;;;;5090954;28;20026;-56
2022/03/31 10:56:29;;;;;;;38.92;23.02;;;9.30;99.90;;;;;;5104015;28;20020;-59
2022/03/31 10:59:00;;;;;;;39.88;24.10;;;9.50;99.90;;;;;;5110798;28;20437;-55
2022/03/31 11:01:34;;;;;;;39.20;22.48;;;9.60;99.90;;;;;;5108282;28;20040;-61
2022/03/31 11:04:08;;;;;;;39.22;22.63;;;9.70;99.90;;;;;;5090776;28;20028;-59
2022/03/31 11:06:48;;;;;;;38.90;23.92;;;9.30;99.90;;;;;;5090398;28;20028;-58
2022/03/31 11:09:21;;;;;;;44.90;24.13;;;9.50;99.90;;;;;;5090057;28;20024;-57
2022/03/31 11:11:55;;;;;;;40.03;22.92;;;9.70;99.90;;;;;;5090339;28;20024;-59
2022/03/31 11:14:22;;;;;;;39.25;23.13;;;9.60;99.90;;;;;;5090436;28;20077;-58
2022/03/31 11:16:47;;;;;;;37.90;21.63;;;9.60;99.90;;;;;;5090347;28;20036;-60
2022/03/31 11:19:13;;;;;;;39.88;23.40;;;9.70;99.90;;;;;;5090360;28;20089;-59
2022/03/31 11:21:42;;;;;;;45.10;26.67;;;9.80;99.90;;;;;;5090417;28;20064;-56
2022/03/31 11:24:09;;;;;;;41.85;24.92;;;9.80;99.90;;;;;;5090352;28;20021;-57
2022/03/31 11:26:40;;;;;;;40.60;23.95;;;10.00;99.90;;;;;;5072318;28;20071;-61
2022/03/31 11:29:14;;;;;;;43.55;24.75;;;10.20;99.90;;;;;;5089845;28;20024;-59
2022/03/31 11:31:47;;;;;;;40.90;25.60;;;10.10;99.90;;;;;;5090073;28;20035;-59
2022/03/31 11:34:22;;;;;;;41.35;25.60;;;9.90;99.90;;;;;;5088279;28;20028;-61
2022/03/31 11:36:48;;;;;;;41.28;24.77;;;9.70;99.90;;;;;;5089743;28;20509;-60
2022/03/31 11:39:14;;;;;;;41.28;25.40;;;9.70;99.90;;;;;;5071192;28;20428;-60
2022/03/31 11:41:41;;;;;;;42.88;27.00;;;9.80;99.90;;;;;;5089955;28;20060;-59
2022/03/31 11:44:08;;;;;;;43.80;25.67;;;9.90;99.90;;;;;;5088804;28;20166;-59
2022/03/31 11:46:41;;;;;;;40.10;25.63;;;9.90;99.90;;;;;;5089555;28;20032;-59
2022/03/31 11:49:17;;;;;;;42.53;26.83;;;9.70;99.90;;;;;;5089811;28;20480;-59
2022/03/31 11:51:54;;;;;;;42.75;25.80;;;9.70;99.90;;;;;;5088748;28;20066;-59
2022/03/31 11:54:21;;;;;;;41.35;26.58;;;9.60;99.90;;;;;;5089502;28;20028;-58
2022/03/31 11:59:22;;;;;;;42.83;25.80;;;9.50;99.90;;;;;;5050302;28;20045;-63
2022/03/31 12:01:48;;;;;;;42.75;27.15;;;9.60;99.90;;;;;;5046502;28;20025;-63
2022/03/31 12:04:25;;;;;;;44.03;28.20;;;9.60;99.90;;;;;;5051228;28;20028;-61
2022/03/31 12:06:54;;;;;;;42.25;26.45;;;9.30;99.90;;;;;;5050858;28;20033;-64
2022/03/31 12:09:23;;;;;;;40.65;25.60;;;9.00;99.90;;;;;;5051949;28;20439;-64
2022/03/31 12:11:49;;;;;;;36.88;24.52;;;8.90;99.90;;;;;;5072591;28;20021;-62
2022/03/31 12:14:15;;;;;;;38.42;25.35;;;9.00;99.90;;;;;;5071973;28;20021;-61
2022/03/31 12:16:49;;;;;;;37.22;24.15;;;8.90;99.90;;;;;;5068432;28;20119;-64
2022/03/31 12:19:15;;;;;;;36.00;22.80;;;9.10;99.90;;;;;;5069417;28;20032;-64
2022/03/31 12:21:49;;;;;;;39.35;23.35;;;9.00;99.90;;;;;;5071390;28;20024;-63
2022/03/31 12:24:15;;;;;;;40.05;23.08;;;9.10;99.90;;;;;;5072536;28;20577;-64
2022/03/31 12:26:58;;;;;;;39.13;23.33;;;9.10;99.90;;;;;;5074734;28;20028;-64
2022/03/31 12:29:27;;;;;;;39.53;22.10;;;9.00;99.90;;;;;;5074414;28;20334;-62
2022/03/31 12:32:06;;;;;;;40.53;22.38;;;9.20;99.90;;;;;;5075180;28;20109;-65
2022/03/31 12:34:34;;;;;;;36.75;23.15;;;9.40;99.90;;;;;;5072561;28;20035;-62
2022/03/31 12:37:00;;;;;;;36.28;21.92;;;9.50;99.90;;;;;;5073109;28;20023;-63
2022/03/31 12:39:27;;;;;;;35.47;22.17;;;9.80;99.90;;;;;;5074561;28;20444;-64
2022/03/31 12:41:57;;;;;;;37.85;22.67;;;9.90;99.90;;;;;;5073285;28;20020;-63
2022/03/31 12:44:25;;;;;;;34.15;21.00;;;10.10;99.90;;;;;;5074639;28;20024;-62
2022/03/31 12:46:51;;;;;;;33.17;21.63;;;10.00;99.90;;;;;;5074187;28;20027;-63